createdAt,value
2017-10-02T00:02:15.790Z,4.80
2017-10-02T00:04:43.279Z,7.63
2017-10-02T00:07:11.516Z,3.17
2017-10-02T00:09:39.015Z,9.37
2017-10-02T00:12:07.992Z,7.60
2017-10-02T00:14:35.467Z,4.50
2017-10-02T00:17:03.728Z,4.83
2017-10-02T00:19:31.207Z,3.43
2017-10-02T00:21:59.487Z,4.57
2017-10-02T00:24:27.727Z,5.80
2017-10-02T00:26:55.200Z,6.20
2017-10-02T00:29:22.683Z,3.63
2017-10-02T00:31:50.989Z,5.27
2017-10-02T00:34:18.481Z,6.20
2017-10-02T00:36:45.965Z,4.80
2017-10-02T00:39:14.944Z,4.43
2017-10-02T00:41:42.428Z,3.63
2017-10-02T00:44:10.667Z,3.13
2017-10-02T00:46:38.151Z,3.80
2017-10-02T00:49:06.393Z,7.17
2017-10-02T00:51:33.859Z,5.70
2017-10-02T00:54:01.348Z,4.80
2017-10-02T00:56:29.585Z,2.90
2017-10-02T00:58:57.083Z,3.23
2017-10-02T01:01:25.325Z,6.13
2017-10-02T01:03:52.810Z,3.73
2017-10-02T01:06:21.066Z,4.50
2017-10-02T01:08:48.540Z,4.30
2017-10-02T01:11:16.799Z,5.10
2017-10-02T01:13:44.264Z,4.83
2017-10-02T01:16:11.735Z,3.03
2017-10-02T01:18:39.238Z,2.67
2017-10-02T01:21:06.711Z,5.57
2017-10-02T01:23:34.256Z,2.33
2017-10-02T01:26:01.727Z,3.23
2017-10-02T01:28:29.236Z,5.47
2017-10-02T01:30:57.496Z,6.83
2017-10-02T01:33:24.974Z,3.90
2017-10-02T01:35:53.239Z,3.63
2017-10-02T01:38:21.480Z,4.63
2017-10-02T01:40:48.947Z,6.90
2017-10-02T01:43:16.444Z,5.03
2017-10-02T01:45:44.679Z,3.97
2017-10-02T01:48:12.175Z,2.70
2017-10-02T01:50:40.415Z,6.53
2017-10-02T01:53:07.888Z,14.63
2017-10-02T01:55:35.366Z,4.63
2017-10-02T01:58:03.603Z,2.77
2017-10-02T02:00:31.094Z,5.60
2017-10-02T02:02:58.571Z,1.60
2017-10-02T02:05:26.811Z,4.07
2017-10-02T02:07:54.303Z,2.70
2017-10-02T02:10:22.563Z,3.93
2017-10-02T02:12:50.855Z,6.40
2017-10-02T02:15:19.091Z,8.43
2017-10-02T02:17:46.565Z,5.73
2017-10-02T02:20:14.060Z,3.50
2017-10-02T02:22:41.636Z,3.80
2017-10-02T02:25:09.902Z,7.00
2017-10-02T02:27:37.369Z,7.13
2017-10-02T02:30:04.849Z,5.30
2017-10-02T02:32:32.335Z,5.03
2017-10-02T02:34:59.803Z,2.97
2017-10-02T02:37:28.059Z,2.30
2017-10-02T02:39:55.526Z,4.97
2017-10-02T02:42:22.995Z,3.50
2017-10-02T02:44:51.989Z,5.67
2017-10-02T02:47:20.239Z,3.10
2017-10-02T02:49:47.936Z,3.63
2017-10-02T02:52:16.182Z,3.63
2017-10-02T02:54:43.649Z,3.87
2017-10-02T02:57:11.132Z,6.20
2017-10-02T02:59:39.372Z,3.50
2017-10-02T03:02:06.876Z,5.30
2017-10-02T03:04:35.113Z,4.50
2017-10-02T03:07:02.587Z,7.20
2017-10-02T03:09:30.067Z,2.57
2017-10-02T03:11:58.298Z,3.97
2017-10-02T03:14:25.792Z,3.47
2017-10-02T03:16:54.036Z,5.40
2017-10-02T03:19:21.507Z,2.50
2017-10-02T03:21:48.997Z,4.30
2017-10-02T03:24:17.227Z,3.90
2017-10-02T03:26:44.719Z,2.13
2017-10-02T03:29:12.956Z,5.63
2017-10-02T03:31:40.431Z,3.73
2017-10-02T03:34:07.942Z,3.37
2017-10-02T03:36:35.407Z,7.77
2017-10-02T03:39:02.906Z,6.10
2017-10-02T03:41:31.144Z,4.30
2017-10-02T03:43:58.625Z,3.40
2017-10-02T03:46:26.115Z,3.13
2017-10-02T03:48:54.359Z,6.13
2017-10-02T03:51:21.856Z,2.57
2017-10-02T03:53:50.164Z,6.77
2017-10-02T03:56:17.633Z,3.40
2017-10-02T03:58:45.124Z,3.70
2017-10-02T04:01:12.599Z,6.67
2017-10-02T04:03:40.869Z,2.90
2017-10-02T04:06:09.124Z,3.33
2017-10-02T04:08:36.595Z,5.40
2017-10-02T04:11:05.586Z,3.30
2017-10-02T04:13:33.060Z,3.63
2017-10-02T04:16:00.552Z,7.57
2017-10-02T04:18:28.015Z,6.17
2017-10-02T04:20:55.484Z,5.00
2017-10-02T04:23:22.972Z,5.10
2017-10-02T04:25:50.458Z,7.30
2017-10-02T04:28:18.730Z,6.40
2017-10-02T04:30:46.975Z,3.30
2017-10-02T04:33:14.507Z,12.27
2017-10-02T04:35:42.062Z,2.80
2017-10-02T04:38:09.547Z,6.27
2017-10-02T04:40:37.043Z,3.87
2017-10-02T04:43:05.288Z,4.30
2017-10-02T04:45:32.774Z,3.17
2017-10-02T04:48:01.031Z,5.13
2017-10-02T04:50:28.504Z,2.70
2017-10-02T04:52:57.504Z,3.50
2017-10-02T04:55:25.755Z,3.40
2017-10-02T04:57:53.221Z,6.27
2017-10-02T05:00:21.484Z,32.90
2017-10-02T05:02:48.959Z,4.87
2017-10-02T05:05:16.455Z,5.80
2017-10-02T05:07:43.926Z,3.43
2017-10-02T05:10:11.399Z,4.27
2017-10-02T05:12:38.884Z,3.00
2017-10-02T05:15:07.127Z,5.80
2017-10-02T05:17:34.631Z,5.03
2017-10-02T05:20:02.115Z,6.80
2017-10-02T05:22:30.355Z,5.87
2017-10-02T05:24:57.844Z,4.90
2017-10-02T05:27:26.087Z,9.30
2017-10-02T05:29:53.584Z,4.23
2017-10-02T05:32:21.828Z,4.40
2017-10-02T05:34:49.315Z,3.63
2017-10-02T05:37:17.576Z,4.80
2017-10-02T05:39:45.832Z,5.10
2017-10-02T05:42:13.327Z,3.70
2017-10-02T05:44:41.576Z,6.90
2017-10-02T05:47:09.821Z,5.87
2017-10-02T05:49:37.327Z,4.00
2017-10-02T05:52:05.571Z,3.30
2017-10-02T05:54:33.067Z,4.63
2017-10-02T05:57:01.313Z,3.13
2017-10-02T05:59:28.793Z,3.97
2017-10-02T06:01:57.054Z,3.20
2017-10-02T06:04:25.291Z,4.00
2017-10-02T06:06:52.815Z,3.40
2017-10-02T06:09:21.059Z,2.73
2017-10-02T06:11:48.543Z,4.73
2017-10-02T06:14:16.796Z,3.00
2017-10-02T06:16:44.266Z,2.97
2017-10-02T06:19:12.524Z,2.60
2017-10-02T06:21:40.001Z,4.00
2017-10-02T06:24:08.290Z,4.13
2017-10-02T06:26:36.540Z,9.30
2017-10-02T06:29:04.016Z,5.47
2017-10-02T06:31:31.517Z,3.57
2017-10-02T06:33:58.999Z,3.17
2017-10-02T06:36:26.487Z,9.20
2017-10-02T06:38:54.743Z,6.17
2017-10-02T06:41:22.224Z,4.20
2017-10-02T06:43:50.488Z,3.30
2017-10-02T06:46:17.964Z,3.70
2017-10-02T06:48:45.440Z,3.67
2017-10-02T06:51:12.951Z,3.53
2017-10-02T06:53:40.435Z,3.30
2017-10-02T06:56:08.721Z,2.50
2017-10-02T06:58:36.964Z,7.47
2017-10-02T07:01:04.435Z,2.60
2017-10-02T07:03:31.928Z,3.13
2017-10-02T07:05:59.407Z,3.77
2017-10-02T07:08:26.908Z,4.70
2017-10-02T07:10:54.379Z,2.43
2017-10-02T07:13:21.849Z,5.33
2017-10-02T07:15:50.111Z,2.60
2017-10-02T07:18:18.348Z,6.60
2017-10-02T07:20:45.843Z,2.57
2017-10-02T07:23:13.347Z,3.27
2017-10-02T07:25:40.824Z,5.20
2017-10-02T07:28:08.303Z,3.53
2017-10-02T07:30:35.780Z,3.53
2017-10-02T07:33:03.279Z,4.70
2017-10-02T07:35:30.764Z,6.30
2017-10-02T07:37:58.236Z,4.53
2017-10-02T07:40:25.719Z,3.30
2017-10-02T07:42:53.995Z,6.33
2017-10-02T07:45:22.270Z,8.27
2017-10-02T07:47:50.519Z,9.10
2017-10-02T07:50:17.999Z,14.67
2017-10-02T07:52:46.254Z,6.73
2017-10-02T07:55:13.748Z,8.17
2017-10-02T07:57:42.035Z,6.30
2017-10-02T08:00:09.527Z,3.70
2017-10-02T08:02:37.076Z,2.23
2017-10-02T08:05:04.590Z,5.70
2017-10-02T08:07:32.063Z,3.60
2017-10-02T08:10:00.334Z,3.33
2017-10-02T08:12:28.588Z,4.80
2017-10-02T08:14:56.059Z,2.80
2017-10-02T08:17:23.554Z,4.70
2017-10-02T08:19:51.031Z,2.73
2017-10-02T08:22:18.523Z,6.97
2017-10-02T08:24:46.765Z,3.20
2017-10-02T08:27:14.235Z,3.33
2017-10-02T08:29:41.723Z,2.43
2017-10-02T08:32:09.192Z,3.53
2017-10-02T08:34:37.461Z,6.00
2017-10-02T08:37:04.950Z,2.87
2017-10-02T08:39:32.428Z,3.83
2017-10-02T08:41:59.911Z,2.90
2017-10-02T08:44:27.392Z,2.37
2017-10-02T08:46:54.876Z,2.77
2017-10-02T08:49:22.355Z,2.43
2017-10-02T08:51:49.832Z,3.67
2017-10-02T08:54:17.323Z,2.33
2017-10-02T08:56:44.822Z,2.73
2017-10-02T08:59:12.342Z,12.63
2017-10-02T09:01:39.816Z,3.57
2017-10-02T09:04:08.063Z,4.40
2017-10-02T09:06:35.548Z,2.70
2017-10-02T09:09:03.787Z,2.50
2017-10-02T09:11:31.279Z,5.07
2017-10-02T09:13:59.515Z,3.63
2017-10-02T09:16:27.004Z,13.03
2017-10-02T09:18:55.312Z,27.93
2017-10-02T09:21:22.792Z,24.00
2017-10-02T09:23:50.291Z,7.23
2017-10-02T09:26:17.802Z,2.27
2017-10-02T09:28:45.279Z,30.73
2017-10-02T09:31:12.775Z,33.40
2017-10-02T09:33:40.284Z,122.43
2017-10-02T09:36:07.780Z,2.13
2017-10-02T09:38:36.751Z,2.23
2017-10-02T09:41:04.228Z,2.13
2017-10-02T09:43:31.716Z,1.67
2017-10-02T09:45:59.999Z,3.90
2017-10-02T09:48:27.500Z,3.27
2017-10-02T09:50:54.983Z,3.83
2017-10-02T09:53:22.462Z,2.63
2017-10-02T09:55:50.711Z,2.00
2017-10-02T09:58:18.185Z,2.80
2017-10-02T10:00:45.755Z,2.43
2017-10-02T10:03:14.028Z,2.70
2017-10-02T10:05:42.266Z,2.13
2017-10-02T10:08:09.746Z,3.43
2017-10-02T10:10:37.224Z,2.97
2017-10-02T10:13:05.480Z,2.37
2017-10-02T10:15:32.949Z,2.20
2017-10-02T10:18:00.423Z,3.73
2017-10-02T10:20:27.923Z,3.47
2017-10-02T10:22:55.424Z,3.23
2017-10-02T10:25:22.995Z,6.50
2017-10-02T10:27:51.263Z,3.00
2017-10-02T10:30:18.735Z,2.20
2017-10-02T10:32:47.004Z,2.00
2017-10-02T10:35:15.243Z,2.80
2017-10-02T10:37:42.740Z,1.60
2017-10-02T10:40:10.980Z,2.13
2017-10-02T10:42:38.447Z,1.70
2017-10-02T10:45:05.968Z,12.10
2017-10-02T10:47:33.469Z,9.87
2017-10-02T10:50:00.968Z,3.90
2017-10-02T10:52:28.439Z,2.93
2017-10-02T10:54:55.903Z,3.03
2017-10-02T10:57:23.424Z,15.63
2017-10-02T10:59:51.668Z,18.37
2017-10-02T11:02:19.173Z,2.77
2017-10-02T11:04:46.725Z,5.33
2017-10-02T11:07:14.972Z,4.20
2017-10-02T11:09:42.471Z,8.27
2017-10-02T11:12:09.955Z,12.23
2017-10-02T11:14:37.476Z,11.37
2017-10-02T11:17:05.715Z,5.53
2017-10-02T11:19:33.186Z,17.13
2017-10-02T11:22:00.682Z,10.10
2017-10-02T11:24:28.259Z,8.17
2017-10-02T11:26:55.775Z,10.80
2017-10-02T11:29:23.258Z,12.33
2017-10-02T11:31:50.736Z,13.83
2017-10-02T11:34:18.229Z,11.20
2017-10-02T11:36:45.712Z,18.47
2017-10-02T11:39:13.978Z,18.57
2017-10-02T11:41:42.963Z,13.70
2017-10-02T11:44:10.439Z,15.63
2017-10-02T11:46:37.959Z,17.20
2017-10-02T11:49:05.456Z,12.77
2017-10-02T11:51:32.954Z,11.53
2017-10-02T11:54:00.425Z,16.60
2017-10-02T11:56:27.894Z,13.33
2017-10-02T11:58:55.391Z,17.00
2017-10-02T12:01:23.664Z,23.43
2017-10-02T12:03:51.167Z,14.20
2017-10-02T12:06:18.648Z,26.10
2017-10-02T12:08:46.124Z,22.63
2017-10-02T12:11:13.607Z,13.03
2017-10-02T12:13:41.853Z,11.87
2017-10-02T12:16:09.356Z,16.77
2017-10-02T12:18:36.910Z,15.10
2017-10-02T12:21:05.151Z,18.03
2017-10-02T12:23:32.755Z,14.60
2017-10-02T12:26:00.235Z,12.60
2017-10-02T12:28:27.731Z,14.40
2017-10-02T12:30:55.215Z,19.27
2017-10-02T12:33:23.452Z,10.63
2017-10-02T12:35:51.112Z,16.53
2017-10-02T12:38:18.627Z,15.57
2017-10-02T12:40:46.127Z,21.87
2017-10-02T12:43:13.604Z,23.40
2017-10-02T12:45:41.087Z,13.57
2017-10-02T12:48:09.348Z,15.03
2017-10-02T12:50:36.830Z,24.90
2017-10-02T12:53:05.095Z,26.47
2017-10-02T12:55:33.349Z,26.67
2017-10-02T12:58:00.836Z,12.23
2017-10-02T13:00:29.127Z,18.00
2017-10-02T13:02:56.603Z,21.23
2017-10-02T13:05:24.127Z,21.50
2017-10-02T13:07:52.408Z,18.30
2017-10-02T13:10:20.642Z,12.90
2017-10-02T13:12:48.129Z,17.57
2017-10-02T13:15:16.220Z,19.93
2017-10-02T13:17:44.496Z,20.97
2017-10-02T13:20:12.798Z,9.37
2017-10-02T13:22:40.288Z,18.97
2017-10-02T13:25:07.785Z,25.73
2017-10-02T13:27:36.026Z,15.70
2017-10-02T13:30:03.535Z,16.33
2017-10-02T13:32:31.007Z,19.73
2017-10-02T13:34:58.479Z,13.40
2017-10-02T13:37:25.969Z,13.83
2017-10-02T13:39:53.551Z,16.70
2017-10-02T13:42:21.856Z,11.10
2017-10-02T13:44:49.327Z,14.90
2017-10-02T13:47:16.830Z,15.60
2017-10-02T13:49:45.112Z,15.07
2017-10-02T13:52:13.367Z,18.20
2017-10-02T13:54:40.891Z,20.10
2017-10-02T13:57:08.363Z,13.07
2017-10-02T13:59:35.841Z,23.73
2017-10-02T14:02:03.431Z,14.13
2017-10-02T14:04:31.672Z,16.83
2017-10-02T14:06:59.180Z,19.13
2017-10-02T14:09:27.421Z,18.23
2017-10-02T14:11:54.902Z,13.20
2017-10-02T14:14:23.172Z,16.00
2017-10-02T14:16:50.647Z,20.90
2017-10-02T14:19:18.913Z,15.60
2017-10-02T14:21:47.217Z,25.93
2017-10-02T14:24:14.692Z,20.77
2017-10-02T14:26:42.183Z,19.20
2017-10-02T14:29:09.663Z,16.30
2017-10-02T14:31:37.923Z,17.83
2017-10-02T14:34:05.409Z,21.43
2017-10-02T14:36:33.683Z,30.83
2017-10-02T14:39:01.943Z,18.50
2017-10-02T14:41:29.416Z,20.27
2017-10-02T14:43:57.761Z,21.07
2017-10-02T14:46:25.259Z,21.00
2017-10-02T14:48:53.496Z,30.47
2017-10-02T14:51:21.020Z,29.60
2017-10-02T14:53:48.499Z,15.70
2017-10-02T14:56:16.032Z,21.13
2017-10-02T14:58:43.510Z,26.40
2017-10-02T15:01:10.993Z,17.83
2017-10-02T15:03:38.577Z,26.80
2017-10-02T15:06:06.079Z,23.50
2017-10-02T15:08:33.611Z,18.47
2017-10-02T15:11:01.091Z,18.73
2017-10-02T15:13:28.582Z,18.40
2017-10-02T15:15:56.071Z,24.87
2017-10-02T15:18:24.351Z,24.50
2017-10-02T15:20:52.671Z,17.33
2017-10-02T15:23:20.158Z,22.80
2017-10-02T15:25:47.679Z,18.10
2017-10-02T15:28:15.167Z,17.57
2017-10-02T15:30:42.640Z,25.27
2017-10-02T15:33:10.134Z,19.37
2017-10-02T15:35:38.452Z,24.30
2017-10-02T15:38:05.960Z,20.87
2017-10-02T15:40:34.215Z,28.93
2017-10-02T15:43:01.692Z,24.90
2017-10-02T15:45:29.223Z,16.73
2017-10-02T15:47:56.708Z,30.10
2017-10-02T15:50:25.040Z,16.03
2017-10-02T15:52:52.535Z,26.60
2017-10-02T15:55:20.038Z,17.43
2017-10-02T15:57:47.583Z,21.40
2017-10-02T16:00:15.054Z,18.23
2017-10-02T16:02:42.560Z,25.40
2017-10-02T16:05:10.087Z,29.70
2017-10-02T16:07:37.559Z,23.30
2017-10-02T16:10:05.063Z,22.20
2017-10-02T16:12:33.315Z,23.53
2017-10-02T16:15:00.799Z,21.43
2017-10-02T16:17:29.060Z,21.77
2017-10-02T16:19:56.556Z,25.50
2017-10-02T16:22:24.085Z,15.67
2017-10-02T16:24:52.332Z,19.27
2017-10-02T16:27:19.808Z,25.93
2017-10-02T16:29:47.379Z,21.60
2017-10-02T16:32:15.628Z,16.47
2017-10-02T16:34:43.136Z,17.33
2017-10-02T16:37:10.611Z,28.57
2017-10-02T16:39:38.087Z,20.70
2017-10-02T16:42:05.567Z,13.93
2017-10-02T16:44:33.055Z,25.97
2017-10-02T16:47:01.316Z,25.13
2017-10-02T16:49:28.787Z,19.03
2017-10-02T16:51:57.032Z,23.63
2017-10-02T16:54:24.520Z,20.67
2017-10-02T16:56:52.764Z,28.03
2017-10-02T16:59:20.263Z,21.77
2017-10-02T17:01:48.503Z,20.70
2017-10-02T17:04:15.983Z,17.13
2017-10-02T17:06:44.297Z,20.57
2017-10-02T17:09:11.772Z,24.00
2017-10-02T17:11:39.275Z,22.70
2017-10-02T17:14:07.527Z,28.77
2017-10-02T17:16:35.003Z,26.37
2017-10-02T17:19:02.571Z,23.23
2017-10-02T17:21:30.816Z,29.23
2017-10-02T17:23:58.315Z,27.70
2017-10-02T17:26:26.560Z,28.63
2017-10-02T17:28:54.040Z,30.77
2017-10-02T17:31:22.319Z,21.17
2017-10-02T17:33:50.564Z,18.10
2017-10-02T17:36:18.073Z,26.50
2017-10-02T17:38:46.306Z,19.63
2017-10-02T17:41:13.787Z,29.87
2017-10-02T17:43:42.060Z,23.93
2017-10-02T17:46:09.661Z,28.97
2017-10-02T17:48:37.160Z,20.87
2017-10-02T17:51:04.680Z,35.17
2017-10-02T17:53:32.178Z,29.50
2017-10-02T17:56:01.192Z,43.93
2017-10-02T17:58:29.440Z,20.87
2017-10-02T18:00:56.956Z,44.73
2017-10-02T18:03:24.431Z,31.27
2017-10-02T18:05:51.908Z,23.93
2017-10-02T18:08:19.411Z,24.57
2017-10-02T18:10:47.725Z,24.03
2017-10-02T18:13:15.223Z,22.50
2017-10-02T18:15:42.704Z,20.70
2017-10-02T18:18:10.948Z,20.63
2017-10-02T18:20:38.540Z,27.97
2017-10-02T18:23:06.852Z,22.80
2017-10-02T18:25:34.413Z,23.27
2017-10-02T18:28:01.904Z,29.73
2017-10-02T18:30:29.378Z,28.07
2017-10-02T18:32:57.643Z,26.20
2017-10-02T18:35:25.256Z,26.27
2017-10-02T18:37:52.757Z,55.73
2017-10-02T18:40:20.232Z,27.17
2017-10-02T18:42:47.703Z,23.13
2017-10-02T18:45:15.975Z,32.23
2017-10-02T18:47:43.458Z,20.83
2017-10-02T18:50:11.727Z,28.07
2017-10-02T18:52:39.972Z,35.07
2017-10-02T18:55:07.452Z,28.53
2017-10-02T18:57:35.734Z,31.73
2017-10-02T19:00:03.995Z,24.87
2017-10-02T19:02:31.506Z,20.53
2017-10-02T19:04:58.984Z,39.40
2017-10-02T19:07:26.463Z,33.57
2017-10-02T19:09:53.947Z,22.00
2017-10-02T19:12:22.203Z,34.50
2017-10-02T19:14:49.711Z,26.20
2017-10-02T19:17:17.193Z,27.43
2017-10-02T19:19:44.685Z,26.23
2017-10-02T19:22:12.959Z,26.10
2017-10-02T19:24:40.435Z,22.97
2017-10-02T19:27:08.695Z,27.80
2017-10-02T19:29:36.182Z,28.07
2017-10-02T19:32:03.676Z,22.60
2017-10-02T19:34:31.178Z,33.33
2017-10-02T19:36:59.434Z,36.37
2017-10-02T19:39:27.719Z,32.60
2017-10-02T19:41:55.975Z,40.13
2017-10-02T19:44:23.470Z,52.00
2017-10-02T19:46:51.735Z,22.27
2017-10-02T19:49:20.028Z,35.77
2017-10-02T19:51:48.308Z,23.97
2017-10-02T19:54:16.567Z,23.63
2017-10-02T19:56:44.079Z,37.07
2017-10-02T19:59:11.570Z,30.63
2017-10-02T20:01:39.055Z,31.07
2017-10-02T20:04:07.411Z,41.73
2017-10-02T20:06:35.655Z,25.80
2017-10-02T20:09:03.153Z,25.70
2017-10-02T20:11:32.193Z,33.73
2017-10-02T20:13:59.682Z,30.03
2017-10-02T20:16:27.179Z,28.13
2017-10-02T20:18:55.426Z,41.47
2017-10-02T20:21:22.927Z,34.10
2017-10-02T20:23:52.119Z,29.20
2017-10-02T20:26:20.418Z,42.60
2017-10-02T20:28:47.924Z,32.50
2017-10-02T20:31:15.405Z,38.10
2017-10-02T20:33:43.682Z,35.17
2017-10-02T20:36:11.931Z,35.10
2017-10-02T20:38:39.407Z,25.97
2017-10-02T20:41:07.045Z,30.00
2017-10-02T20:43:34.527Z,35.80
2017-10-02T20:46:02.012Z,30.23
2017-10-02T20:48:29.510Z,30.57
2017-10-02T20:50:57.003Z,65.87
2017-10-02T20:53:25.276Z,66.30
2017-10-02T20:55:52.792Z,37.23
2017-10-02T20:58:20.270Z,32.37
2017-10-02T21:00:47.763Z,36.07
2017-10-02T21:03:16.004Z,48.57
2017-10-02T21:05:43.517Z,26.90
2017-10-02T21:08:11.118Z,54.53
2017-10-02T21:10:38.650Z,35.50
2017-10-02T21:13:06.197Z,33.30
2017-10-02T21:15:33.695Z,39.17
2017-10-02T21:18:01.204Z,31.07
2017-10-02T21:20:28.684Z,32.07
2017-10-02T21:22:56.172Z,42.87
2017-10-02T21:25:23.691Z,41.43
2017-10-02T21:27:51.175Z,33.03
2017-10-02T21:30:18.721Z,46.73
2017-10-02T21:32:46.215Z,35.13
2017-10-02T21:35:13.737Z,32.63
2017-10-02T21:37:41.222Z,36.23
2017-10-02T21:40:08.698Z,32.10
2017-10-02T21:42:36.191Z,39.17
2017-10-02T21:45:04.455Z,44.37
2017-10-02T21:47:32.705Z,46.80
2017-10-02T21:50:00.197Z,57.20
2017-10-02T21:52:28.436Z,42.87
2017-10-02T21:54:56.743Z,48.73
2017-10-02T21:57:24.997Z,36.13
2017-10-02T21:59:52.485Z,40.53
2017-10-02T22:02:20.747Z,77.90
2017-10-02T22:04:48.999Z,52.03
2017-10-02T22:07:16.592Z,78.60
2017-10-02T22:09:44.835Z,55.17
2017-10-02T22:12:12.327Z,42.60
2017-10-02T22:14:40.598Z,38.77
2017-10-02T22:17:08.843Z,45.97
2017-10-02T22:19:36.351Z,45.33
2017-10-02T22:22:04.602Z,42.57
2017-10-02T22:24:32.077Z,62.50
2017-10-02T22:27:00.327Z,49.90
2017-10-02T22:29:27.807Z,54.17
2017-10-02T22:31:56.075Z,73.10
2017-10-02T22:34:24.360Z,45.00
2017-10-02T22:36:52.614Z,41.37
2017-10-02T22:39:20.107Z,43.17
2017-10-02T22:41:48.347Z,42.40
2017-10-02T22:44:15.847Z,39.00
2017-10-02T22:46:44.087Z,41.17
2017-10-02T22:49:11.563Z,38.20
2017-10-02T22:51:39.836Z,37.60
2017-10-02T22:54:08.080Z,36.67
2017-10-02T22:56:35.579Z,41.63
2017-10-02T22:59:03.819Z,40.20
2017-10-02T23:01:31.300Z,39.57
2017-10-02T23:03:58.796Z,38.20
2017-10-02T23:06:26.277Z,37.03
2017-10-02T23:08:53.804Z,42.70
2017-10-02T23:11:21.282Z,38.97
2017-10-02T23:13:48.751Z,32.30
2017-10-02T23:16:16.240Z,45.13
2017-10-02T23:18:43.716Z,34.63
2017-10-02T23:21:11.984Z,45.87
2017-10-02T23:23:40.239Z,31.83
2017-10-02T23:26:07.752Z,41.33
2017-10-02T23:28:35.259Z,37.73
2017-10-02T23:31:02.749Z,36.53
2017-10-02T23:33:30.276Z,43.07
2017-10-02T23:35:57.747Z,43.13
2017-10-02T23:38:25.230Z,55.57
2017-10-02T23:40:53.487Z,28.27
2017-10-02T23:43:20.963Z,44.43
2017-10-02T23:45:49.224Z,44.80
2017-10-02T23:48:16.699Z,51.40
2017-10-02T23:50:44.935Z,28.77
2017-10-02T23:53:12.423Z,37.43
2017-10-02T23:55:40.662Z,29.27
2017-10-02T23:58:08.168Z,31.53
